Startpagina
METAR-TAF:

METAR-TAF

Vliegvelden :

Oostende, België

Internationale Luchthaven Oostende-Brugge

breedte: 51-12N, lengte: 002-52E, hoogte: 4 m

Actueel weer

Dit bericht is 34 minuten geleden gemaakt, om 17:20 UTC
Wind 4 kt uit het noordwesten
Temperatuur 9°C
Vochtigheid 66%
Druk 1017 hPa
Zicht 10 km of meer
Weinig wolken op 2500 ft

METAR: EBOS 281720Z 31004KT 9999 FEW025 09/03 Q1017 NOSIG

Tijdstip: 19:54 (17:54 UTC)

Verwachting

Dit bericht is 34 minuten geleden gemaakt, om 17:20 UTC
Verwachting geldig van 28 om 18 UTC tot 29 om 24 UTC
Wind 8 kt uit het noordnoordwesten
Zicht 10 km of meer
Verspreide wolken op 2500 ft
Kans 40% :
Tijdelijke
van 28 om 22 UTC tot 29 om 05 UTC
Zicht: 1200 m
Ondiepe mist
Wijzigt naar
van 29 om 13 UTC tot 29 om 15 UTC
Wind 10 kt uit het noordoosten
Wijzigt naar
van 29 om 19 UTC tot 29 om 21 UTC
Wind 10 kt uit het oostzuidoosten

TAF: EBOS 281720Z 2818/2924 33008KT 9999 SCT025 PROB40 TEMPO 2822/2905 1200 MIFG BECMG 2913/2915 05010KT BECMG 2919/2921 11010KT

Waarnemingen en weersverwachtingen van meer dan 4000 vliegvelden (METAR en TAF).

De beschikbare stations zijn de gele en rode punten op de kaart.

Ga met uw muis naar het station om de naam te zien.

Klik dan om waarnemingen en weersverwachtingen te zien.

kaart wijzigen: klik op de groene knoppen met een zwart kruis om in te zoomen, op de groene knop met een streepje om uit te zoomen of op de groene pijlen voor aangrenzende kaarten.


METAR-TAF: